sensor_id;sensor_type;location;lat;lon;timestamp;P1;durP1;ratioP1;P2;durP2;ratioP2
59302;SDS011;45074;52.764;6.896;2022-11-30T00:00:33;34.70;;;18.80;;
59302;SDS011;45074;52.764;6.896;2022-11-30T00:03:00;33.42;;;18.83;;
59302;SDS011;45074;52.764;6.896;2022-11-30T00:05:25;31.65;;;18.45;;
59302;SDS011;45074;52.764;6.896;2022-11-30T00:07:51;30.73;;;17.35;;
59302;SDS011;45074;52.764;6.896;2022-11-30T00:10:21;34.20;;;18.65;;
59302;SDS011;45074;52.764;6.896;2022-11-30T00:12:47;33.88;;;18.75;;
59302;SDS011;45074;52.764;6.896;2022-11-30T00:15:14;34.72;;;17.60;;
59302;SDS011;45074;52.764;6.896;2022-11-30T00:17:44;32.60;;;18.42;;
59302;SDS011;45074;52.764;6.896;2022-11-30T00:20:11;33.50;;;18.55;;
59302;SDS011;45074;52.764;6.896;2022-11-30T00:22:38;37.20;;;19.88;;
59302;SDS011;45074;52.764;6.896;2022-11-30T00:25:04;36.92;;;19.40;;
59302;SDS011;45074;52.764;6.896;2022-11-30T00:27:31;32.90;;;18.27;;
59302;SDS011;45074;52.764;6.896;2022-11-30T00:29:57;35.20;;;19.33;;
59302;SDS011;45074;52.764;6.896;2022-11-30T00:32:24;34.72;;;20.23;;
59302;SDS011;45074;52.764;6.896;2022-11-30T00:34:50;35.80;;;19.50;;
59302;SDS011;45074;52.764;6.896;2022-11-30T00:37:16;36.75;;;19.35;;
59302;SDS011;45074;52.764;6.896;2022-11-30T00:39:42;39.35;;;20.73;;
59302;SDS011;45074;52.764;6.896;2022-11-30T00:42:08;40.65;;;21.02;;
59302;SDS011;45074;52.764;6.896;2022-11-30T00:44:34;38.35;;;21.50;;
59302;SDS011;45074;52.764;6.896;2022-11-30T00:47:00;40.70;;;21.60;;
59302;SDS011;45074;52.764;6.896;2022-11-30T00:49:26;38.53;;;21.05;;
59302;SDS011;45074;52.764;6.896;2022-11-30T00:51:52;39.15;;;20.85;;
59302;SDS011;45074;52.764;6.896;2022-11-30T00:54:18;40.05;;;22.10;;
59302;SDS011;45074;52.764;6.896;2022-11-30T00:56:44;40.92;;;20.80;;
59302;SDS011;45074;52.764;6.896;2022-11-30T00:59:12;40.20;;;22.00;;
59302;SDS011;45074;52.764;6.896;2022-11-30T01:01:38;39.85;;;21.17;;
59302;SDS011;45074;52.764;6.896;2022-11-30T01:04:04;40.25;;;22.13;;
59302;SDS011;45074;52.764;6.896;2022-11-30T01:06:30;46.38;;;22.85;;
59302;SDS011;45074;52.764;6.896;2022-11-30T01:08:56;44.88;;;22.55;;
59302;SDS011;45074;52.764;6.896;2022-11-30T01:11:24;41.17;;;21.50;;
59302;SDS011;45074;52.764;6.896;2022-11-30T01:13:51;43.60;;;23.92;;
59302;SDS011;45074;52.764;6.896;2022-11-30T01:16:22;45.58;;;22.63;;
59302;SDS011;45074;52.764;6.896;2022-11-30T01:18:52;43.45;;;23.00;;
59302;SDS011;45074;52.764;6.896;2022-11-30T01:21:22;44.00;;;23.05;;
59302;SDS011;45074;52.764;6.896;2022-11-30T01:26:15;46.15;;;23.15;;
59302;SDS011;45074;52.764;6.896;2022-11-30T01:28:42;42.53;;;22.40;;
59302;SDS011;45074;52.764;6.896;2022-11-30T01:31:09;47.63;;;23.92;;
59302;SDS011;45074;52.764;6.896;2022-11-30T01:33:37;47.97;;;23.48;;
59302;SDS011;45074;52.764;6.896;2022-11-30T01:36:13;51.53;;;25.20;;
59302;SDS011;45074;52.764;6.896;2022-11-30T01:38:41;46.90;;;22.90;;
59302;SDS011;45074;52.764;6.896;2022-11-30T01:41:09;48.53;;;23.40;;
59302;SDS011;45074;52.764;6.896;2022-11-30T01:46:13;44.17;;;23.73;;
59302;SDS011;45074;52.764;6.896;2022-11-30T01:48:46;45.83;;;22.70;;
59302;SDS011;45074;52.764;6.896;2022-11-30T01:51:21;48.30;;;23.75;;
59302;SDS011;45074;52.764;6.896;2022-11-30T01:53:47;46.45;;;23.65;;
59302;SDS011;45074;52.764;6.896;2022-11-30T01:56:13;42.53;;;22.58;;
59302;SDS011;45074;52.764;6.896;2022-11-30T01:58:39;45.88;;;24.13;;
59302;SDS011;45074;52.764;6.896;2022-11-30T02:01:05;43.28;;;23.25;;
59302;SDS011;45074;52.764;6.896;2022-11-30T02:03:33;42.55;;;23.27;;
59302;SDS011;45074;52.764;6.896;2022-11-30T02:06:10;46.22;;;23.48;;
59302;SDS011;45074;52.764;6.896;2022-11-30T02:08:36;45.25;;;23.00;;
59302;SDS011;45074;52.764;6.896;2022-11-30T02:11:03;44.28;;;23.33;;
59302;SDS011;45074;52.764;6.896;2022-11-30T02:18:42;41.78;;;21.98;;
59302;SDS011;45074;52.764;6.896;2022-11-30T02:21:37;44.53;;;23.00;;
59302;SDS011;45074;52.764;6.896;2022-11-30T02:24:26;43.50;;;22.65;;
59302;SDS011;45074;52.764;6.896;2022-11-30T02:30:07;39.00;;;21.13;;
59302;SDS011;45074;52.764;6.896;2022-11-30T02:32:45;37.58;;;21.38;;
59302;SDS011;45074;52.764;6.896;2022-11-30T02:35:24;41.10;;;21.75;;
59302;SDS011;45074;52.764;6.896;2022-11-30T02:37:53;38.13;;;21.63;;
59302;SDS011;45074;52.764;6.896;2022-11-30T02:40:19;37.95;;;21.48;;
59302;SDS011;45074;52.764;6.896;2022-11-30T02:42:46;39.75;;;21.23;;
59302;SDS011;45074;52.764;6.896;2022-11-30T02:45:14;39.60;;;21.55;;
59302;SDS011;45074;52.764;6.896;2022-11-30T02:47:47;36.25;;;20.65;;
59302;SDS011;45074;52.764;6.896;2022-11-30T02:52:51;34.50;;;20.00;;
59302;SDS011;45074;52.764;6.896;2022-11-30T02:55:18;35.58;;;21.17;;
59302;SDS011;45074;52.764;6.896;2022-11-30T02:57:44;34.42;;;19.05;;
59302;SDS011;45074;52.764;6.896;2022-11-30T03:00:11;35.50;;;20.52;;
59302;SDS011;45074;52.764;6.896;2022-11-30T03:02:38;32.22;;;19.95;;
59302;SDS011;45074;52.764;6.896;2022-11-30T03:05:05;32.63;;;19.30;;
59302;SDS011;45074;52.764;6.896;2022-11-30T03:07:31;30.02;;;19.02;;
59302;SDS011;45074;52.764;6.896;2022-11-30T03:09:57;33.22;;;19.02;;
59302;SDS011;45074;52.764;6.896;2022-11-30T03:12:24;31.58;;;18.95;;
59302;SDS011;45074;52.764;6.896;2022-11-30T03:14:50;31.92;;;19.35;;
59302;SDS011;45074;52.764;6.896;2022-11-30T03:17:16;33.10;;;18.80;;
59302;SDS011;45074;52.764;6.896;2022-11-30T03:19:42;31.45;;;19.33;;
59302;SDS011;45074;52.764;6.896;2022-11-30T03:22:09;34.85;;;20.23;;
59302;SDS011;45074;52.764;6.896;2022-11-30T03:24:35;33.22;;;20.17;;
59302;SDS011;45074;52.764;6.896;2022-11-30T03:27:00;34.75;;;20.05;;
59302;SDS011;45074;52.764;6.896;2022-11-30T03:29:26;35.70;;;20.33;;
59302;SDS011;45074;52.764;6.896;2022-11-30T03:31:52;36.03;;;20.10;;
59302;SDS011;45074;52.764;6.896;2022-11-30T03:34:18;33.25;;;18.95;;
59302;SDS011;45074;52.764;6.896;2022-11-30T03:36:44;34.95;;;20.27;;
59302;SDS011;45074;52.764;6.896;2022-11-30T03:39:10;33.35;;;20.17;;
59302;SDS011;45074;52.764;6.896;2022-11-30T03:41:36;35.50;;;19.98;;
59302;SDS011;45074;52.764;6.896;2022-11-30T03:44:02;33.30;;;20.92;;
59302;SDS011;45074;52.764;6.896;2022-11-30T03:46:28;37.53;;;21.25;;
59302;SDS011;45074;52.764;6.896;2022-11-30T03:48:54;36.03;;;20.05;;
59302;SDS011;45074;52.764;6.896;2022-11-30T03:51:20;33.72;;;19.73;;
59302;SDS011;45074;52.764;6.896;2022-11-30T03:53:46;35.67;;;20.23;;
59302;SDS011;45074;52.764;6.896;2022-11-30T03:56:13;38.78;;;20.17;;
59302;SDS011;45074;52.764;6.896;2022-11-30T03:58:39;37.67;;;21.70;;
59302;SDS011;45074;52.764;6.896;2022-11-30T04:03:32;34.65;;;20.27;;
59302;SDS011;45074;52.764;6.896;2022-11-30T04:05:58;36.20;;;20.77;;
59302;SDS011;45074;52.764;6.896;2022-11-30T04:08:24;38.38;;;21.58;;
59302;SDS011;45074;52.764;6.896;2022-11-30T04:10:51;34.47;;;20.98;;
59302;SDS011;45074;52.764;6.896;2022-11-30T04:13:18;35.45;;;21.17;;
59302;SDS011;45074;52.764;6.896;2022-11-30T04:15:45;36.35;;;19.98;;
59302;SDS011;45074;52.764;6.896;2022-11-30T04:18:11;42.03;;;21.77;;
59302;SDS011;45074;52.764;6.896;2022-11-30T04:20:37;37.08;;;21.27;;
59302;SDS011;45074;52.764;6.896;2022-11-30T04:23:03;40.67;;;22.10;;
59302;SDS011;45074;52.764;6.896;2022-11-30T04:25:29;36.95;;;20.98;;
59302;SDS011;45074;52.764;6.896;2022-11-30T04:27:55;38.65;;;20.98;;
59302;SDS011;45074;52.764;6.896;2022-11-30T04:30:21;37.42;;;21.33;;
59302;SDS011;45074;52.764;6.896;2022-11-30T04:32:47;38.10;;;20.95;;
59302;SDS011;45074;52.764;6.896;2022-11-30T04:35:13;38.88;;;22.33;;
59302;SDS011;45074;52.764;6.896;2022-11-30T04:37:39;40.55;;;22.23;;
59302;SDS011;45074;52.764;6.896;2022-11-30T04:40:05;40.20;;;22.10;;
59302;SDS011;45074;52.764;6.896;2022-11-30T04:42:32;39.35;;;21.23;;
59302;SDS011;45074;52.764;6.896;2022-11-30T04:44:58;39.05;;;21.48;;
59302;SDS011;45074;52.764;6.896;2022-11-30T04:47:24;39.65;;;20.98;;
59302;SDS011;45074;52.764;6.896;2022-11-30T04:49:50;40.80;;;22.40;;
59302;SDS011;45074;52.764;6.896;2022-11-30T04:52:16;35.15;;;20.35;;
59302;SDS011;45074;52.764;6.896;2022-11-30T04:54:42;38.83;;;21.60;;
59302;SDS011;45074;52.764;6.896;2022-11-30T04:57:08;37.42;;;21.17;;
59302;SDS011;45074;52.764;6.896;2022-11-30T04:59:34;35.50;;;20.40;;
59302;SDS011;45074;52.764;6.896;2022-11-30T05:02:00;34.38;;;19.83;;
59302;SDS011;45074;52.764;6.896;2022-11-30T05:04:26;36.65;;;19.85;;
59302;SDS011;45074;52.764;6.896;2022-11-30T05:06:52;35.88;;;20.33;;
59302;SDS011;45074;52.764;6.896;2022-11-30T05:09:18;35.03;;;20.30;;
59302;SDS011;45074;52.764;6.896;2022-11-30T05:11:44;35.05;;;21.15;;
59302;SDS011;45074;52.764;6.896;2022-11-30T05:14:12;34.40;;;19.92;;
59302;SDS011;45074;52.764;6.896;2022-11-30T05:16:38;34.75;;;19.80;;
59302;SDS011;45074;52.764;6.896;2022-11-30T05:19:04;31.33;;;19.20;;
59302;SDS011;45074;52.764;6.896;2022-11-30T05:21:30;33.22;;;19.88;;
59302;SDS011;45074;52.764;6.896;2022-11-30T05:23:56;31.50;;;19.27;;
59302;SDS011;45074;52.764;6.896;2022-11-30T05:26:22;31.80;;;19.25;;
59302;SDS011;45074;52.764;6.896;2022-11-30T05:28:48;32.17;;;18.40;;
59302;SDS011;45074;52.764;6.896;2022-11-30T05:31:14;29.83;;;18.55;;
59302;SDS011;45074;52.764;6.896;2022-11-30T05:33:40;33.83;;;19.45;;
59302;SDS011;45074;52.764;6.896;2022-11-30T05:36:06;31.50;;;18.92;;
59302;SDS011;45074;52.764;6.896;2022-11-30T05:38:32;32.65;;;19.02;;
59302;SDS011;45074;52.764;6.896;2022-11-30T05:40:59;33.95;;;20.05;;
59302;SDS011;45074;52.764;6.896;2022-11-30T05:43:25;34.92;;;20.00;;
59302;SDS011;45074;52.764;6.896;2022-11-30T05:45:51;34.17;;;20.15;;
59302;SDS011;45074;52.764;6.896;2022-11-30T05:48:18;33.33;;;19.85;;
59302;SDS011;45074;52.764;6.896;2022-11-30T05:50:44;32.13;;;19.17;;
59302;SDS011;45074;52.764;6.896;2022-11-30T05:53:10;32.55;;;19.40;;
59302;SDS011;45074;52.764;6.896;2022-11-30T05:55:36;32.50;;;19.20;;
59302;SDS011;45074;52.764;6.896;2022-11-30T05:58:02;32.63;;;19.45;;
59302;SDS011;45074;52.764;6.896;2022-11-30T06:00:28;31.90;;;19.05;;
59302;SDS011;45074;52.764;6.896;2022-11-30T06:02:54;30.75;;;17.80;;
59302;SDS011;45074;52.764;6.896;2022-11-30T06:05:21;31.83;;;18.42;;
59302;SDS011;45074;52.764;6.896;2022-11-30T06:07:47;32.05;;;18.27;;
59302;SDS011;45074;52.764;6.896;2022-11-30T06:10:13;30.60;;;18.08;;
59302;SDS011;45074;52.764;6.896;2022-11-30T06:12:39;30.35;;;18.75;;
59302;SDS011;45074;52.764;6.896;2022-11-30T06:15:05;30.73;;;18.63;;
59302;SDS011;45074;52.764;6.896;2022-11-30T06:17:32;33.05;;;19.35;;
59302;SDS011;45074;52.764;6.896;2022-11-30T06:19:58;28.95;;;17.75;;
59302;SDS011;45074;52.764;6.896;2022-11-30T06:22:24;31.52;;;18.70;;
59302;SDS011;45074;52.764;6.896;2022-11-30T06:24:50;29.10;;;17.85;;
59302;SDS011;45074;52.764;6.896;2022-11-30T06:27:16;31.25;;;18.25;;
59302;SDS011;45074;52.764;6.896;2022-11-30T06:29:42;29.92;;;18.27;;
59302;SDS011;45074;52.764;6.896;2022-11-30T06:32:08;29.35;;;17.73;;
59302;SDS011;45074;52.764;6.896;2022-11-30T06:34:34;30.02;;;18.10;;
59302;SDS011;45074;52.764;6.896;2022-11-30T06:37:00;29.15;;;17.15;;
59302;SDS011;45074;52.764;6.896;2022-11-30T06:39:26;31.38;;;17.10;;
59302;SDS011;45074;52.764;6.896;2022-11-30T06:41:52;27.00;;;15.88;;
59302;SDS011;45074;52.764;6.896;2022-11-30T06:44:18;25.95;;;16.00;;
59302;SDS011;45074;52.764;6.896;2022-11-30T06:46:45;24.13;;;15.25;;
59302;SDS011;45074;52.764;6.896;2022-11-30T06:49:10;25.52;;;15.65;;
59302;SDS011;45074;52.764;6.896;2022-11-30T06:51:36;25.08;;;15.80;;
59302;SDS011;45074;52.764;6.896;2022-11-30T06:54:04;25.13;;;15.30;;
59302;SDS011;45074;52.764;6.896;2022-11-30T06:56:30;25.08;;;14.95;;
59302;SDS011;45074;52.764;6.896;2022-11-30T06:58:56;26.70;;;15.05;;
59302;SDS011;45074;52.764;6.896;2022-11-30T07:01:22;25.60;;;15.98;;
59302;SDS011;45074;52.764;6.896;2022-11-30T07:03:48;23.33;;;15.48;;
59302;SDS011;45074;52.764;6.896;2022-11-30T07:06:14;26.00;;;15.70;;
59302;SDS011;45074;52.764;6.896;2022-11-30T07:08:41;28.65;;;17.75;;
59302;SDS011;45074;52.764;6.896;2022-11-30T07:11:08;26.50;;;16.40;;
59302;SDS011;45074;52.764;6.896;2022-11-30T07:13:34;26.88;;;15.15;;
59302;SDS011;45074;52.764;6.896;2022-11-30T07:16:04;25.63;;;15.48;;
59302;SDS011;45074;52.764;6.896;2022-11-30T07:18:31;23.35;;;15.23;;
59302;SDS011;45074;52.764;6.896;2022-11-30T07:20:57;27.80;;;16.35;;
59302;SDS011;45074;52.764;6.896;2022-11-30T07:23:24;25.73;;;15.63;;
59302;SDS011;45074;52.764;6.896;2022-11-30T07:26:09;26.80;;;15.35;;
59302;SDS011;45074;52.764;6.896;2022-11-30T07:28:36;27.20;;;15.70;;
59302;SDS011;45074;52.764;6.896;2022-11-30T07:33:46;26.52;;;15.35;;
59302;SDS011;45074;52.764;6.896;2022-11-30T07:36:12;27.45;;;15.77;;
59302;SDS011;45074;52.764;6.896;2022-11-30T07:38:39;26.65;;;15.73;;
59302;SDS011;45074;52.764;6.896;2022-11-30T07:41:05;29.27;;;15.48;;
59302;SDS011;45074;52.764;6.896;2022-11-30T07:43:31;27.08;;;15.90;;
59302;SDS011;45074;52.764;6.896;2022-11-30T07:45:57;28.58;;;16.55;;
59302;SDS011;45074;52.764;6.896;2022-11-30T07:48:24;28.25;;;16.50;;
59302;SDS011;45074;52.764;6.896;2022-11-30T07:50:50;24.85;;;15.25;;
59302;SDS011;45074;52.764;6.896;2022-11-30T07:53:16;29.20;;;16.30;;
59302;SDS011;45074;52.764;6.896;2022-11-30T07:55:42;27.48;;;16.25;;
59302;SDS011;45074;52.764;6.896;2022-11-30T07:58:08;28.67;;;17.10;;
59302;SDS011;45074;52.764;6.896;2022-11-30T08:00:35;28.17;;;15.68;;
59302;SDS011;45074;52.764;6.896;2022-11-30T08:03:02;25.85;;;15.50;;
59302;SDS011;45074;52.764;6.896;2022-11-30T08:05:28;26.50;;;16.15;;
59302;SDS011;45074;52.764;6.896;2022-11-30T08:07:54;26.60;;;16.70;;
59302;SDS011;45074;52.764;6.896;2022-11-30T08:10:20;27.75;;;16.55;;
59302;SDS011;45074;52.764;6.896;2022-11-30T08:12:46;26.55;;;16.67;;
59302;SDS011;45074;52.764;6.896;2022-11-30T08:15:12;24.95;;;15.52;;
59302;SDS011;45074;52.764;6.896;2022-11-30T08:17:39;25.05;;;15.27;;
59302;SDS011;45074;52.764;6.896;2022-11-30T08:20:05;25.90;;;15.98;;
59302;SDS011;45074;52.764;6.896;2022-11-30T08:22:32;24.58;;;14.90;;
59302;SDS011;45074;52.764;6.896;2022-11-30T08:24:58;20.23;;;14.10;;
59302;SDS011;45074;52.764;6.896;2022-11-30T08:27:24;21.73;;;14.43;;
59302;SDS011;45074;52.764;6.896;2022-11-30T08:29:50;22.27;;;14.20;;
59302;SDS011;45074;52.764;6.896;2022-11-30T08:32:16;23.33;;;14.00;;
59302;SDS011;45074;52.764;6.896;2022-11-30T08:34:42;24.50;;;14.95;;
59302;SDS011;45074;52.764;6.896;2022-11-30T08:37:09;22.92;;;14.88;;
59302;SDS011;45074;52.764;6.896;2022-11-30T08:39:35;24.38;;;14.60;;
59302;SDS011;45074;52.764;6.896;2022-11-30T08:42:01;23.08;;;15.07;;
59302;SDS011;45074;52.764;6.896;2022-11-30T08:44:27;23.23;;;14.88;;
59302;SDS011;45074;52.764;6.896;2022-11-30T08:46:53;23.05;;;15.35;;
59302;SDS011;45074;52.764;6.896;2022-11-30T08:49:19;25.00;;;16.45;;
59302;SDS011;45074;52.764;6.896;2022-11-30T08:51:46;22.55;;;15.25;;
59302;SDS011;45074;52.764;6.896;2022-11-30T08:54:12;24.52;;;15.32;;
59302;SDS011;45074;52.764;6.896;2022-11-30T08:56:38;25.13;;;15.68;;
59302;SDS011;45074;52.764;6.896;2022-11-30T08:59:04;24.13;;;15.52;;
59302;SDS011;45074;52.764;6.896;2022-11-30T09:01:30;25.05;;;16.00;;
59302;SDS011;45074;52.764;6.896;2022-11-30T09:03:56;23.30;;;15.50;;
59302;SDS011;45074;52.764;6.896;2022-11-30T09:06:23;25.52;;;15.13;;
59302;SDS011;45074;52.764;6.896;2022-11-30T09:08:51;26.13;;;15.93;;
59302;SDS011;45074;52.764;6.896;2022-11-30T09:13:43;25.13;;;15.30;;
59302;SDS011;45074;52.764;6.896;2022-11-30T09:16:10;24.63;;;16.05;;
59302;SDS011;45074;52.764;6.896;2022-11-30T09:18:37;24.23;;;14.93;;
59302;SDS011;45074;52.764;6.896;2022-11-30T09:21:04;23.40;;;15.20;;
59302;SDS011;45074;52.764;6.896;2022-11-30T09:23:33;23.85;;;14.68;;
59302;SDS011;45074;52.764;6.896;2022-11-30T09:26:00;23.08;;;15.23;;
59302;SDS011;45074;52.764;6.896;2022-11-30T09:28:27;21.08;;;14.40;;
59302;SDS011;45074;52.764;6.896;2022-11-30T09:31:39;22.13;;;14.35;;
59302;SDS011;45074;52.764;6.896;2022-11-30T09:33:50;22.55;;;13.85;;
59302;SDS011;45074;52.764;6.896;2022-11-30T09:36:18;22.63;;;14.60;;
59302;SDS011;45074;52.764;6.896;2022-11-30T09:38:45;19.75;;;13.27;;
59302;SDS011;45074;52.764;6.896;2022-11-30T09:44:15;19.17;;;13.00;;
59302;SDS011;45074;52.764;6.896;2022-11-30T09:50:19;20.33;;;13.82;;
59302;SDS011;45074;52.764;6.896;2022-11-30T09:52:49;21.52;;;13.63;;
59302;SDS011;45074;52.764;6.896;2022-11-30T09:55:40;21.27;;;13.35;;
59302;SDS011;45074;52.764;6.896;2022-11-30T09:58:06;21.95;;;14.23;;
59302;SDS011;45074;52.764;6.896;2022-11-30T10:00:41;22.40;;;14.10;;
59302;SDS011;45074;52.764;6.896;2022-11-30T10:03:09;20.20;;;13.93;;
59302;SDS011;45074;52.764;6.896;2022-11-30T10:10:51;21.35;;;14.30;;
59302;SDS011;45074;52.764;6.896;2022-11-30T10:13:43;21.40;;;13.88;;
59302;SDS011;45074;52.764;6.896;2022-11-30T10:16:24;19.85;;;13.02;;
59302;SDS011;45074;52.764;6.896;2022-11-30T10:26:54;18.85;;;13.35;;
59302;SDS011;45074;52.764;6.896;2022-11-30T10:29:32;18.23;;;12.73;;
59302;SDS011;45074;52.764;6.896;2022-11-30T10:32:08;19.95;;;13.50;;
59302;SDS011;45074;52.764;6.896;2022-11-30T10:34:42;19.80;;;13.40;;
59302;SDS011;45074;52.764;6.896;2022-11-30T10:37:22;20.55;;;13.20;;
59302;SDS011;45074;52.764;6.896;2022-11-30T10:42:23;19.95;;;13.77;;
59302;SDS011;45074;52.764;6.896;2022-11-30T10:44:56;19.73;;;14.02;;
59302;SDS011;45074;52.764;6.896;2022-11-30T10:47:34;19.02;;;14.07;;
59302;SDS011;45074;52.764;6.896;2022-11-30T10:52:34;21.45;;;15.05;;
59302;SDS011;45074;52.764;6.896;2022-11-30T10:55:15;22.98;;;14.82;;
59302;SDS011;45074;52.764;6.896;2022-11-30T10:57:43;21.70;;;14.32;;
59302;SDS011;45074;52.764;6.896;2022-11-30T11:00:12;21.73;;;14.85;;
59302;SDS011;45074;52.764;6.896;2022-11-30T11:02:45;20.60;;;15.00;;
59302;SDS011;45074;52.764;6.896;2022-11-30T11:05:25;22.60;;;15.93;;
59302;SDS011;45074;52.764;6.896;2022-11-30T11:07:56;22.48;;;15.93;;
59302;SDS011;45074;52.764;6.896;2022-11-30T11:10:26;25.58;;;16.73;;
59302;SDS011;45074;52.764;6.896;2022-11-30T11:13:17;25.13;;;16.13;;
59302;SDS011;45074;52.764;6.896;2022-11-30T11:16:00;23.63;;;16.33;;
59302;SDS011;45074;52.764;6.896;2022-11-30T11:18:27;27.52;;;16.63;;
59302;SDS011;45074;52.764;6.896;2022-11-30T11:23:40;25.17;;;17.05;;
59302;SDS011;45074;52.764;6.896;2022-11-30T11:26:14;24.70;;;16.83;;
59302;SDS011;45074;52.764;6.896;2022-11-30T11:28:49;25.38;;;16.98;;
59302;SDS011;45074;52.764;6.896;2022-11-30T11:33:52;24.95;;;16.48;;
59302;SDS011;45074;52.764;6.896;2022-11-30T11:36:26;28.15;;;18.02;;
59302;SDS011;45074;52.764;6.896;2022-11-30T11:38:56;27.20;;;17.98;;
59302;SDS011;45074;52.764;6.896;2022-11-30T11:41:36;30.75;;;19.23;;
59302;SDS011;45074;52.764;6.896;2022-11-30T11:44:04;28.02;;;18.27;;
59302;SDS011;45074;52.764;6.896;2022-11-30T11:46:34;30.33;;;19.33;;
59302;SDS011;45074;52.764;6.896;2022-11-30T11:49:05;61.65;;;21.25;;
59302;SDS011;45074;52.764;6.896;2022-11-30T11:54:56;28.30;;;17.42;;
59302;SDS011;45074;52.764;6.896;2022-11-30T11:57:31;26.40;;;17.67;;
59302;SDS011;45074;52.764;6.896;2022-11-30T12:00:19;28.58;;;17.70;;
59302;SDS011;45074;52.764;6.896;2022-11-30T12:02:56;26.13;;;18.05;;
59302;SDS011;45074;52.764;6.896;2022-11-30T12:05:27;29.25;;;18.73;;
59302;SDS011;45074;52.764;6.896;2022-11-30T12:08:05;31.88;;;19.15;;
59302;SDS011;45074;52.764;6.896;2022-11-30T12:10:35;32.70;;;19.85;;
59302;SDS011;45074;52.764;6.896;2022-11-30T12:13:22;34.77;;;19.17;;
59302;SDS011;45074;52.764;6.896;2022-11-30T12:16:11;36.38;;;20.92;;
59302;SDS011;45074;52.764;6.896;2022-11-30T12:21:13;41.20;;;23.05;;
59302;SDS011;45074;52.764;6.896;2022-11-30T12:23:46;39.22;;;22.73;;
59302;SDS011;45074;52.764;6.896;2022-11-30T12:31:54;41.10;;;22.88;;
59302;SDS011;45074;52.764;6.896;2022-11-30T12:37:38;44.60;;;23.48;;
59302;SDS011;45074;52.764;6.896;2022-11-30T12:42:45;47.35;;;23.77;;
59302;SDS011;45074;52.764;6.896;2022-11-30T12:45:30;45.50;;;23.90;;
59302;SDS011;45074;52.764;6.896;2022-11-30T12:50:51;46.42;;;24.40;;
59302;SDS011;45074;52.764;6.896;2022-11-30T12:56:01;48.90;;;24.40;;
59302;SDS011;45074;52.764;6.896;2022-11-30T12:58:42;46.97;;;23.55;;
59302;SDS011;45074;52.764;6.896;2022-11-30T13:04:18;47.05;;;24.00;;
59302;SDS011;45074;52.764;6.896;2022-11-30T13:07:05;46.65;;;23.52;;
59302;SDS011;45074;52.764;6.896;2022-11-30T13:09:57;46.53;;;22.98;;
59302;SDS011;45074;52.764;6.896;2022-11-30T13:12:34;45.40;;;23.38;;
59302;SDS011;45074;52.764;6.896;2022-11-30T13:15:43;43.83;;;22.77;;
59302;SDS011;45074;52.764;6.896;2022-11-30T13:17:52;40.92;;;22.50;;
59302;SDS011;45074;52.764;6.896;2022-11-30T13:28:09;50.33;;;25.40;;
59302;SDS011;45074;52.764;6.896;2022-11-30T13:31:04;50.63;;;24.58;;
59302;SDS011;45074;52.764;6.896;2022-11-30T13:33:46;44.15;;;23.63;;
59302;SDS011;45074;52.764;6.896;2022-11-30T13:41:42;45.20;;;24.08;;
59302;SDS011;45074;52.764;6.896;2022-11-30T13:46:58;49.15;;;24.90;;
59302;SDS011;45074;52.764;6.896;2022-11-30T13:49:34;64.22;;;48.30;;
59302;SDS011;45074;52.764;6.896;2022-11-30T13:52:01;53.15;;;30.05;;
59302;SDS011;45074;52.764;6.896;2022-11-30T13:57:15;53.15;;;26.30;;
59302;SDS011;45074;52.764;6.896;2022-11-30T13:59:44;50.63;;;26.88;;
59302;SDS011;45074;52.764;6.896;2022-11-30T14:12:58;51.60;;;25.85;;
59302;SDS011;45074;52.764;6.896;2022-11-30T14:15:25;59.78;;;30.52;;
59302;SDS011;45074;52.764;6.896;2022-11-30T14:18:18;54.05;;;27.52;;
59302;SDS011;45074;52.764;6.896;2022-11-30T14:26:05;55.40;;;27.10;;
59302;SDS011;45074;52.764;6.896;2022-11-30T14:31:06;58.17;;;28.42;;
59302;SDS011;45074;52.764;6.896;2022-11-30T14:33:42;57.15;;;29.02;;
59302;SDS011;45074;52.764;6.896;2022-11-30T14:36:14;58.05;;;27.83;;
59302;SDS011;45074;52.764;6.896;2022-11-30T14:38:40;51.55;;;27.88;;
59302;SDS011;45074;52.764;6.896;2022-11-30T14:41:17;55.53;;;27.10;;
59302;SDS011;45074;52.764;6.896;2022-11-30T14:43:56;55.95;;;27.70;;
59302;SDS011;45074;52.764;6.896;2022-11-30T14:46:42;56.85;;;27.95;;
59302;SDS011;45074;52.764;6.896;2022-11-30T14:49:12;59.25;;;27.65;;
59302;SDS011;45074;52.764;6.896;2022-11-30T14:51:50;55.92;;;28.65;;
59302;SDS011;45074;52.764;6.896;2022-11-30T14:57:17;56.17;;;28.00;;
59302;SDS011;45074;52.764;6.896;2022-11-30T14:59:56;57.50;;;27.38;;
59302;SDS011;45074;52.764;6.896;2022-11-30T15:02:25;60.25;;;28.55;;
59302;SDS011;45074;52.764;6.896;2022-11-30T15:05:06;50.17;;;27.00;;
59302;SDS011;45074;52.764;6.896;2022-11-30T15:07:38;52.80;;;26.25;;
59302;SDS011;45074;52.764;6.896;2022-11-30T15:10:07;55.45;;;27.23;;
59302;SDS011;45074;52.764;6.896;2022-11-30T15:12:36;54.95;;;26.30;;
59302;SDS011;45074;52.764;6.896;2022-11-30T15:17:30;57.33;;;27.73;;
59302;SDS011;45074;52.764;6.896;2022-11-30T15:19:56;58.58;;;27.90;;
59302;SDS011;45074;52.764;6.896;2022-11-30T15:22:23;53.78;;;26.83;;
59302;SDS011;45074;52.764;6.896;2022-11-30T15:24:49;54.03;;;25.67;;
59302;SDS011;45074;52.764;6.896;2022-11-30T15:27:18;51.80;;;26.38;;
59302;SDS011;45074;52.764;6.896;2022-11-30T15:29:56;52.75;;;25.38;;
59302;SDS011;45074;52.764;6.896;2022-11-30T15:32:24;55.40;;;25.80;;
59302;SDS011;45074;52.764;6.896;2022-11-30T15:34:54;56.83;;;26.65;;
59302;SDS011;45074;52.764;6.896;2022-11-30T15:37:28;57.20;;;26.55;;
59302;SDS011;45074;52.764;6.896;2022-11-30T15:39:56;50.60;;;26.65;;
59302;SDS011;45074;52.764;6.896;2022-11-30T15:42:33;53.92;;;25.88;;
59302;SDS011;45074;52.764;6.896;2022-11-30T15:45:24;54.13;;;26.90;;
59302;SDS011;45074;52.764;6.896;2022-11-30T15:47:54;52.85;;;26.38;;
59302;SDS011;45074;52.764;6.896;2022-11-30T15:52:53;54.97;;;26.73;;
59302;SDS011;45074;52.764;6.896;2022-11-30T16:01:07;57.67;;;26.20;;
59302;SDS011;45074;52.764;6.896;2022-11-30T16:03:57;50.92;;;25.58;;
59302;SDS011;45074;52.764;6.896;2022-11-30T16:06:25;56.85;;;26.25;;
59302;SDS011;45074;52.764;6.896;2022-11-30T16:09:16;56.53;;;26.77;;
59302;SDS011;45074;52.764;6.896;2022-11-30T16:11:42;60.60;;;27.40;;
59302;SDS011;45074;52.764;6.896;2022-11-30T16:14:10;53.15;;;26.55;;
59302;SDS011;45074;52.764;6.896;2022-11-30T16:16:39;55.60;;;27.63;;
59302;SDS011;45074;52.764;6.896;2022-11-30T16:19:06;57.28;;;28.40;;
59302;SDS011;45074;52.764;6.896;2022-11-30T16:21:32;56.10;;;27.40;;
59302;SDS011;45074;52.764;6.896;2022-11-30T16:23:58;59.20;;;28.05;;
59302;SDS011;45074;52.764;6.896;2022-11-30T16:26:24;58.05;;;28.67;;
59302;SDS011;45074;52.764;6.896;2022-11-30T16:28:50;53.85;;;27.05;;
59302;SDS011;45074;52.764;6.896;2022-11-30T16:31:19;53.63;;;27.10;;
59302;SDS011;45074;52.764;6.896;2022-11-30T16:33:45;61.15;;;29.00;;
59302;SDS011;45074;52.764;6.896;2022-11-30T16:36:16;60.28;;;28.15;;
59302;SDS011;45074;52.764;6.896;2022-11-30T16:38:47;58.42;;;27.90;;
59302;SDS011;45074;52.764;6.896;2022-11-30T16:41:18;57.20;;;27.77;;
59302;SDS011;45074;52.764;6.896;2022-11-30T16:43:44;60.97;;;28.88;;